createdAt,value
2023-03-02T00:01:24.311Z,77.04
2023-03-02T00:03:51.369Z,76.83
2023-03-02T00:06:18.718Z,77.16
2023-03-02T00:08:46.568Z,76.98
2023-03-02T00:11:15.103Z,77.04
2023-03-02T00:13:42.628Z,77.25
2023-03-02T00:16:09.694Z,76.89
2023-03-02T00:18:36.600Z,77.12
2023-03-02T00:21:03.670Z,77.21
2023-03-02T00:23:30.593Z,77.47
2023-03-02T00:25:57.448Z,77.72
2023-03-02T00:28:24.268Z,77.53
2023-03-02T00:30:51.083Z,77.47
2023-03-02T00:33:19.317Z,77.38
2023-03-02T00:35:46.695Z,77.99
2023-03-02T00:38:13.484Z,78.26
2023-03-02T00:40:43.772Z,78.29
2023-03-02T00:43:10.543Z,78.02
2023-03-02T00:45:37.384Z,77.77
2023-03-02T00:48:04.303Z,77.63
2023-03-02T00:50:31.655Z,78.23
2023-03-02T00:52:58.540Z,78.07
2023-03-02T00:55:25.372Z,78.14
2023-03-02T00:57:54.761Z,78.19
2023-03-02T01:00:27.487Z,78.12
2023-03-02T01:02:56.015Z,77.96
2023-03-02T01:05:23.834Z,77.86
2023-03-02T01:07:50.745Z,78.02
2023-03-02T01:10:17.648Z,78.06
2023-03-02T01:12:44.560Z,77.99
2023-03-02T01:15:11.473Z,77.96
2023-03-02T01:17:39.252Z,77.76
2023-03-02T01:20:08.385Z,77.96
2023-03-02T01:22:35.250Z,77.81
2023-03-02T01:25:02.570Z,77.96
2023-03-02T01:27:29.358Z,77.69
2023-03-02T01:29:56.134Z,78.29
2023-03-02T01:32:23.131Z,77.72
2023-03-02T01:34:49.966Z,77.67
2023-03-02T01:37:16.860Z,77.62
2023-03-02T01:39:43.746Z,78.07
2023-03-02T01:42:10.578Z,77.92
2023-03-02T01:44:37.522Z,77.96
2023-03-02T01:47:05.986Z,77.67
2023-03-02T01:49:36.268Z,77.89
2023-03-02T01:52:03.559Z,78.67
2023-03-02T01:54:30.412Z,78.40
2023-03-02T01:57:02.793Z,78.74
2023-03-02T01:59:31.246Z,78.78
2023-03-02T02:01:59.720Z,78.97
2023-03-02T02:04:28.461Z,78.36
2023-03-02T02:06:59.128Z,78.95
2023-03-02T02:09:27.368Z,78.94
2023-03-02T02:11:54.465Z,79.03
2023-03-02T02:14:21.777Z,78.66
2023-03-02T02:16:48.722Z,79.12
2023-03-02T02:19:34.190Z,78.66
2023-03-02T02:22:01.289Z,78.44
2023-03-02T02:24:31.384Z,78.69
2023-03-02T02:26:58.563Z,79.04
2023-03-02T02:29:33.869Z,79.16
2023-03-02T02:32:03.423Z,78.68
2023-03-02T02:34:32.106Z,79.27
2023-03-02T02:37:02.918Z,79.82
2023-03-02T02:39:31.038Z,79.42
2023-03-02T02:41:58.970Z,79.31
2023-03-02T02:44:27.949Z,80.78
2023-03-02T02:46:54.919Z,80.06
2023-03-02T02:49:24.821Z,79.51
2023-03-02T02:51:51.964Z,79.16
2023-03-02T02:54:22.402Z,78.43
2023-03-02T02:56:51.436Z,78.58
2023-03-02T02:59:39.422Z,79.86
2023-03-02T03:02:06.544Z,81.63
2023-03-02T03:04:33.603Z,80.17
2023-03-02T03:07:02.983Z,80.12
2023-03-02T03:09:30.707Z,80.02
2023-03-02T03:12:01.269Z,79.76
2023-03-02T03:14:30.167Z,80.26
2023-03-02T03:16:57.501Z,80.22
2023-03-02T03:19:26.695Z,80.15
2023-03-02T03:21:55.334Z,80.15
2023-03-02T03:24:22.661Z,79.96
2023-03-02T03:26:51.360Z,80.06
2023-03-02T03:29:23.687Z,80.12
2023-03-02T03:31:51.285Z,79.11
2023-03-02T03:34:19.182Z,79.43
2023-03-02T03:36:47.389Z,79.37
2023-03-02T03:39:16.132Z,79.94
2023-03-02T03:41:43.288Z,79.84
2023-03-02T03:44:10.856Z,79.96
2023-03-02T03:46:38.326Z,79.94
2023-03-02T03:49:05.364Z,79.93
2023-03-02T03:51:34.737Z,80.17
2023-03-02T03:54:02.865Z,80.09
2023-03-02T03:56:35.735Z,80.11
2023-03-02T03:59:06.507Z,80.04
2023-03-02T04:01:37.195Z,80.12
2023-03-02T04:04:05.817Z,79.74
2023-03-02T04:06:33.320Z,80.10
2023-03-02T04:09:04.074Z,79.76
2023-03-02T04:11:33.498Z,79.96
2023-03-02T04:14:00.547Z,79.78
2023-03-02T04:16:27.697Z,79.67
2023-03-02T04:18:55.110Z,79.66
2023-03-02T04:21:22.464Z,79.62
2023-03-02T04:23:49.416Z,79.32
2023-03-02T04:26:16.732Z,79.38
2023-03-02T04:28:44.157Z,79.45
2023-03-02T04:31:11.456Z,79.30
2023-03-02T04:33:38.667Z,79.40
2023-03-02T04:36:06.599Z,79.31
2023-03-02T04:38:33.868Z,78.85
2023-03-02T04:41:02.066Z,79.63
2023-03-02T04:43:28.862Z,80.87
2023-03-02T04:45:55.629Z,80.33
2023-03-02T04:48:22.486Z,80.16
2023-03-02T04:50:50.244Z,79.72
2023-03-02T04:53:17.135Z,79.74
2023-03-02T04:55:43.996Z,79.89
2023-03-02T04:58:10.861Z,80.23
2023-03-02T05:00:37.655Z,80.11
2023-03-02T05:03:04.659Z,80.11
2023-03-02T05:05:31.716Z,80.23
2023-03-02T05:07:59.304Z,80.15
2023-03-02T05:10:27.092Z,80.38
2023-03-02T05:12:54.746Z,80.40
2023-03-02T05:15:22.629Z,80.24
2023-03-02T05:17:49.484Z,80.43
2023-03-02T05:20:16.640Z,80.38
2023-03-02T05:22:43.512Z,80.43
2023-03-02T05:25:10.913Z,80.27
2023-03-02T05:27:37.963Z,80.51
2023-03-02T05:30:05.976Z,80.41
2023-03-02T05:32:32.850Z,80.71
2023-03-02T05:35:00.049Z,80.71
2023-03-02T05:37:26.916Z,80.87
2023-03-02T05:39:56.039Z,80.83
2023-03-02T05:42:22.868Z,80.95
2023-03-02T05:44:49.792Z,80.90
2023-03-02T05:47:16.619Z,81.07
2023-03-02T05:49:43.543Z,81.06
2023-03-02T05:52:10.443Z,81.50
2023-03-02T05:54:37.388Z,81.33
2023-03-02T05:57:04.249Z,81.43
2023-03-02T05:59:31.023Z,81.07
2023-03-02T06:01:59.069Z,81.09
2023-03-02T06:04:26.004Z,81.02
2023-03-02T06:06:52.821Z,80.94
2023-03-02T06:09:19.737Z,80.83
2023-03-02T06:11:46.662Z,80.89
2023-03-02T06:14:13.496Z,80.61
2023-03-02T06:16:40.310Z,80.34
2023-03-02T06:19:07.174Z,80.28
2023-03-02T06:21:33.986Z,80.06
2023-03-02T06:24:00.906Z,79.91
2023-03-02T06:26:27.874Z,79.69
2023-03-02T06:28:54.599Z,79.42
2023-03-02T06:31:21.600Z,79.68
2023-03-02T06:33:48.629Z,79.53
2023-03-02T06:36:16.507Z,79.19
2023-03-02T06:38:43.427Z,78.93
2023-03-02T06:41:10.234Z,78.91
2023-03-02T06:43:37.126Z,79.45
2023-03-02T06:46:04.141Z,79.36
2023-03-02T06:48:31.077Z,79.31
2023-03-02T06:50:57.874Z,78.75
2023-03-02T06:53:24.832Z,78.68
2023-03-02T06:55:52.190Z,78.43
2023-03-02T06:58:19.187Z,78.55
2023-03-02T07:00:46.156Z,78.01
2023-03-02T07:03:13.363Z,78.07
2023-03-02T07:05:41.676Z,77.62
2023-03-02T07:08:08.910Z,77.79
2023-03-02T07:10:36.862Z,77.48
2023-03-02T07:13:03.677Z,77.52
2023-03-02T07:15:30.507Z,77.18
2023-03-02T07:17:57.354Z,77.13
2023-03-02T07:20:24.291Z,76.89
2023-03-02T07:22:51.211Z,76.40
2023-03-02T07:25:18.003Z,76.12
2023-03-02T07:27:44.970Z,75.12
2023-03-02T07:30:12.223Z,75.02
2023-03-02T07:32:39.154Z,75.45
2023-03-02T07:35:06.292Z,75.42
2023-03-02T07:37:33.162Z,75.24
2023-03-02T07:40:00.953Z,74.92
2023-03-02T07:42:28.087Z,74.07
2023-03-02T07:44:56.730Z,73.78
2023-03-02T07:47:23.747Z,72.88
2023-03-02T07:49:50.576Z,72.04
2023-03-02T07:52:17.623Z,71.63
2023-03-02T07:54:44.450Z,70.41
2023-03-02T07:57:13.380Z,70.21
2023-03-02T07:59:40.328Z,70.44
2023-03-02T08:02:09.141Z,69.65
2023-03-02T08:04:36.380Z,69.76
2023-03-02T08:07:03.327Z,69.36
2023-03-02T08:09:30.177Z,67.77
2023-03-02T08:11:57.537Z,66.46
2023-03-02T08:14:24.461Z,65.55
2023-03-02T08:16:51.961Z,66.61
2023-03-02T08:19:19.517Z,64.42
2023-03-02T08:21:46.392Z,65.39
2023-03-02T08:24:13.496Z,63.55
2023-03-02T08:26:40.376Z,61.09
2023-03-02T08:29:07.540Z,60.84
2023-03-02T08:31:34.856Z,61.54
2023-03-02T08:34:02.088Z,61.35
2023-03-02T08:36:29.055Z,61.99
2023-03-02T08:38:55.920Z,59.15
2023-03-02T08:41:23.207Z,58.48
2023-03-02T08:43:53.738Z,60.82
2023-03-02T08:46:20.891Z,61.90
2023-03-02T08:48:49.271Z,62.44
2023-03-02T08:51:17.899Z,61.40
2023-03-02T08:53:46.319Z,58.93
2023-03-02T08:56:20.736Z,57.60
2023-03-02T08:58:48.537Z,56.18
2023-03-02T09:01:20.245Z,55.54
2023-03-02T09:03:47.350Z,53.48
2023-03-02T09:06:14.596Z,54.49
2023-03-02T09:08:41.984Z,50.51
2023-03-02T09:11:09.125Z,48.36
2023-03-02T09:13:36.713Z,51.55
2023-03-02T09:16:04.253Z,51.14
2023-03-02T09:18:31.615Z,47.72
2023-03-02T09:20:58.575Z,48.62
2023-03-02T09:23:26.240Z,51.43
2023-03-02T09:25:53.903Z,49.28
2023-03-02T09:28:24.028Z,44.62
2023-03-02T09:30:52.113Z,47.09
2023-03-02T09:33:20.185Z,45.41
2023-03-02T09:35:47.340Z,47.41
2023-03-02T09:38:17.857Z,46.33
2023-03-02T09:40:58.322Z,44.16
2023-03-02T09:43:27.910Z,43.23
2023-03-02T09:46:12.131Z,45.42
2023-03-02T09:48:57.125Z,44.56
2023-03-02T09:51:39.242Z,42.18
2023-03-02T09:54:10.398Z,43.34
2023-03-02T09:56:41.949Z,39.32
2023-03-02T09:59:24.235Z,43.75
2023-03-02T10:02:11.297Z,44.31
2023-03-02T10:04:44.760Z,40.63
2023-03-02T10:07:38.003Z,40.58
2023-03-02T10:10:17.375Z,40.87
2023-03-02T10:13:02.810Z,38.42
2023-03-02T10:15:43.173Z,41.14
2023-03-02T10:18:17.398Z,41.93
2023-03-02T10:20:47.409Z,41.67
2023-03-02T10:23:43.544Z,41.95
2023-03-02T10:26:28.914Z,37.62
2023-03-02T10:29:14.576Z,40.91
2023-03-02T10:31:43.057Z,36.32
2023-03-02T10:34:10.620Z,35.87
2023-03-02T10:36:39.638Z,40.01
2023-03-02T10:39:11.893Z,38.14
2023-03-02T10:41:44.849Z,37.53
2023-03-02T10:44:15.536Z,40.17
2023-03-02T10:46:43.782Z,40.15
2023-03-02T10:49:23.335Z,37.71
2023-03-02T10:51:57.425Z,33.21
2023-03-02T10:54:25.730Z,34.16
2023-03-02T10:56:54.486Z,34.25
2023-03-02T10:59:24.549Z,36.25
2023-03-02T11:01:59.319Z,39.21
2023-03-02T11:04:26.449Z,39.47
2023-03-02T11:06:54.460Z,36.73
2023-03-02T11:09:21.665Z,34.27
2023-03-02T11:11:53.458Z,36.14
2023-03-02T11:14:22.513Z,32.13
2023-03-02T11:16:51.107Z,35.10
2023-03-02T11:19:38.936Z,35.57
2023-03-02T11:22:05.886Z,34.57
2023-03-02T11:24:42.056Z,30.22
2023-03-02T11:27:15.771Z,31.41
2023-03-02T11:29:52.572Z,33.28
2023-03-02T11:32:30.483Z,31.75
2023-03-02T11:35:00.043Z,32.31
2023-03-02T11:38:00.559Z,33.11
2023-03-02T11:40:38.640Z,35.29
2023-03-02T11:43:05.718Z,33.34
2023-03-02T11:45:34.927Z,32.92
2023-03-02T11:48:03.433Z,32.49
2023-03-02T11:50:32.347Z,35.57
2023-03-02T11:53:01.368Z,33.48
2023-03-02T11:55:31.226Z,33.13
2023-03-02T12:00:31.779Z,30.95
2023-03-02T12:03:06.134Z,30.41
2023-03-02T12:05:35.427Z,28.52
2023-03-02T12:08:04.247Z,29.42
2023-03-02T12:10:34.044Z,30.02
2023-03-02T12:13:00.867Z,29.47
2023-03-02T12:15:34.458Z,31.69
2023-03-02T12:18:01.398Z,30.46
2023-03-02T12:20:29.731Z,32.89
2023-03-02T12:23:07.250Z,32.79
2023-03-02T12:25:43.333Z,33.78
2023-03-02T12:28:48.735Z,33.62
2023-03-02T12:31:15.650Z,31.77
2023-03-02T12:33:49.341Z,31.92
2023-03-02T12:36:19.378Z,31.11
2023-03-02T12:38:52.468Z,29.62
2023-03-02T12:41:22.580Z,27.04
2023-03-02T12:43:54.141Z,28.40
2023-03-02T12:46:27.014Z,29.27
2023-03-02T12:48:57.240Z,28.95
2023-03-02T12:51:25.843Z,28.65
2023-03-02T12:54:02.911Z,28.75
2023-03-02T12:56:29.852Z,30.73
2023-03-02T12:58:56.976Z,30.49
2023-03-02T13:01:25.866Z,29.60
2023-03-02T13:03:53.720Z,29.78
2023-03-02T13:06:23.438Z,27.02
2023-03-02T13:08:52.296Z,26.96
2023-03-02T13:11:31.475Z,27.40
2023-03-02T13:13:59.315Z,27.72
2023-03-02T13:16:31.907Z,28.95
2023-03-02T13:19:00.344Z,28.53
2023-03-02T13:21:32.406Z,29.60
2023-03-02T13:23:59.793Z,29.80
2023-03-02T13:26:34.911Z,30.87
2023-03-02T13:29:04.703Z,28.80
2023-03-02T13:31:31.693Z,27.77
2023-03-02T13:33:59.960Z,27.58
2023-03-02T13:36:28.772Z,29.27
2023-03-02T13:38:58.673Z,27.64
2023-03-02T13:41:29.515Z,26.12
2023-03-02T13:43:58.508Z,26.14
2023-03-02T13:46:28.132Z,25.25
2023-03-02T13:49:14.214Z,26.62
2023-03-02T13:51:43.607Z,27.88
2023-03-02T13:54:20.815Z,27.37
2023-03-02T13:56:48.470Z,28.31
2023-03-02T13:59:16.778Z,27.96
2023-03-02T14:01:44.021Z,27.07
2023-03-02T14:04:12.515Z,26.29
2023-03-02T14:06:39.512Z,27.27
2023-03-02T14:09:06.391Z,28.12
2023-03-02T14:11:38.168Z,26.44
2023-03-02T14:14:06.007Z,27.99
2023-03-02T14:16:35.565Z,26.26
2023-03-02T14:19:02.925Z,25.89
2023-03-02T14:21:29.813Z,25.00
2023-03-02T14:23:58.382Z,24.99
2023-03-02T14:26:28.252Z,26.17
2023-03-02T14:29:04.910Z,25.42
2023-03-02T14:31:33.149Z,26.11
2023-03-02T14:34:00.180Z,26.73
2023-03-02T14:36:28.334Z,26.26
2023-03-02T14:38:56.376Z,27.40
2023-03-02T14:41:23.964Z,29.70
2023-03-02T14:43:50.751Z,28.63
2023-03-02T14:46:17.876Z,29.56
2023-03-02T14:48:45.000Z,29.67
2023-03-02T14:51:18.536Z,29.58
2023-03-02T14:53:45.485Z,29.10
2023-03-02T14:56:12.807Z,29.64
2023-03-02T14:58:39.689Z,30.15
2023-03-02T15:01:06.551Z,29.37
2023-03-02T15:03:33.495Z,30.65
2023-03-02T15:06:02.238Z,30.90
2023-03-02T15:08:29.319Z,31.12
2023-03-02T15:10:56.078Z,32.59
2023-03-02T15:13:22.967Z,32.48
2023-03-02T15:15:50.101Z,33.41
2023-03-02T15:18:19.044Z,33.15
2023-03-02T15:20:45.864Z,33.11
2023-03-02T15:23:12.925Z,33.77
2023-03-02T15:25:40.322Z,35.16
2023-03-02T15:28:07.250Z,35.96
2023-03-02T15:30:34.121Z,36.51
2023-03-02T15:33:00.944Z,36.29
2023-03-02T15:35:28.632Z,36.69
2023-03-02T15:37:57.709Z,37.97
2023-03-02T15:40:25.045Z,38.43
2023-03-02T15:42:52.615Z,39.52
2023-03-02T15:45:19.406Z,40.23
2023-03-02T15:47:46.279Z,40.87
2023-03-02T15:50:13.027Z,40.22
2023-03-02T15:52:41.056Z,41.16
2023-03-02T15:55:08.052Z,40.06
2023-03-02T15:57:38.830Z,43.89
2023-03-02T16:00:06.178Z,43.40
2023-03-02T16:02:33.107Z,42.34
2023-03-02T16:04:59.881Z,43.69
2023-03-02T16:07:26.739Z,44.64
2023-03-02T16:09:53.522Z,44.57
2023-03-02T16:12:22.899Z,45.18
2023-03-02T16:14:49.671Z,46.11
2023-03-02T16:17:19.790Z,46.90
2023-03-02T16:19:46.582Z,47.78
2023-03-02T16:22:13.412Z,48.25
2023-03-02T16:24:41.803Z,49.29
2023-03-02T16:27:08.888Z,49.44
2023-03-02T16:29:35.920Z,50.06
2023-03-02T16:32:02.982Z,51.22
2023-03-02T16:34:29.869Z,51.57
2023-03-02T16:36:56.757Z,52.33
2023-03-02T16:39:24.059Z,52.72
2023-03-02T16:41:51.033Z,54.09
2023-03-02T16:44:17.849Z,53.45
2023-03-02T16:46:44.679Z,53.90
2023-03-02T16:49:12.308Z,53.87
2023-03-02T16:51:39.215Z,54.18
2023-03-02T16:54:06.230Z,54.66
2023-03-02T16:56:33.137Z,54.98
2023-03-02T16:59:00.380Z,55.36
2023-03-02T17:01:27.679Z,55.51
2023-03-02T17:03:54.727Z,55.83
2023-03-02T17:06:22.496Z,56.28
2023-03-02T17:08:50.233Z,56.63
2023-03-02T17:11:17.368Z,56.37
2023-03-02T17:13:44.252Z,56.07
2023-03-02T17:16:11.327Z,57.19
2023-03-02T17:18:38.226Z,57.80
2023-03-02T17:21:05.066Z,57.60
2023-03-02T17:23:31.948Z,57.36
2023-03-02T17:25:58.751Z,57.19
2023-03-02T17:28:25.523Z,57.29
2023-03-02T17:30:52.592Z,57.16
2023-03-02T17:33:19.441Z,57.61
2023-03-02T17:35:46.369Z,57.36
2023-03-02T17:38:13.987Z,57.39
2023-03-02T17:40:41.310Z,57.33
2023-03-02T17:43:08.365Z,56.95
2023-03-02T17:45:35.366Z,57.53
2023-03-02T17:48:02.253Z,57.65
2023-03-02T17:50:31.270Z,57.87
2023-03-02T17:52:59.251Z,58.63
2023-03-02T17:55:26.250Z,58.66
2023-03-02T17:57:53.272Z,58.29
2023-03-02T18:00:21.932Z,57.96
2023-03-02T18:02:49.501Z,57.59
2023-03-02T18:05:16.450Z,58.33
2023-03-02T18:07:43.243Z,58.57
2023-03-02T18:10:10.481Z,59.62
2023-03-02T18:12:37.277Z,60.30
2023-03-02T18:15:04.492Z,60.23
2023-03-02T18:17:31.346Z,59.86
2023-03-02T18:19:58.189Z,60.05
2023-03-02T18:22:25.002Z,60.20
2023-03-02T18:24:52.358Z,60.36
2023-03-02T18:27:19.689Z,60.38
2023-03-02T18:29:46.614Z,60.42
2023-03-02T18:32:13.488Z,60.19
2023-03-02T18:34:40.267Z,60.53
2023-03-02T18:37:07.572Z,60.83
2023-03-02T18:39:34.730Z,60.65
2023-03-02T18:42:01.656Z,61.14
2023-03-02T18:44:30.620Z,61.23
2023-03-02T18:46:58.206Z,61.21
2023-03-02T18:49:25.157Z,61.32
2023-03-02T18:51:52.517Z,61.83
2023-03-02T18:54:19.347Z,62.15
2023-03-02T18:56:46.174Z,62.35
2023-03-02T18:59:13.466Z,62.74
2023-03-02T19:01:40.323Z,63.06
2023-03-02T19:04:07.253Z,63.03
2023-03-02T19:06:34.189Z,63.40
2023-03-02T19:09:01.165Z,63.48
2023-03-02T19:11:27.961Z,63.52
2023-03-02T19:13:54.761Z,63.40
2023-03-02T19:16:21.609Z,63.48
2023-03-02T19:18:49.477Z,63.25
2023-03-02T19:21:16.529Z,63.47
2023-03-02T19:23:45.565Z,63.06
2023-03-02T19:26:13.350Z,63.29
2023-03-02T19:28:40.190Z,63.34
2023-03-02T19:31:08.319Z,63.24
2023-03-02T19:33:35.049Z,63.49
2023-03-02T19:36:01.973Z,63.60
2023-03-02T19:38:28.877Z,63.57
2023-03-02T19:40:56.993Z,63.34
2023-03-02T19:43:24.108Z,63.48
2023-03-02T19:45:51.070Z,63.45
2023-03-02T19:48:18.676Z,63.53
2023-03-02T19:50:45.722Z,64.20
2023-03-02T19:53:13.242Z,65.22
2023-03-02T19:55:41.964Z,65.30
2023-03-02T19:58:10.731Z,64.97
2023-03-02T20:00:38.330Z,64.58
2023-03-02T20:03:07.984Z,64.43
2023-03-02T20:05:35.960Z,62.31
2023-03-02T20:08:02.788Z,62.99
2023-03-02T20:10:32.716Z,64.55
2023-03-02T20:13:00.165Z,64.59
2023-03-02T20:15:27.639Z,65.26
2023-03-02T20:17:54.583Z,65.35
2023-03-02T20:20:21.646Z,65.32
2023-03-02T20:22:48.972Z,65.08
2023-03-02T20:25:15.860Z,66.17
2023-03-02T20:27:42.670Z,67.27
2023-03-02T20:30:11.191Z,67.01
2023-03-02T20:32:38.113Z,67.09
2023-03-02T20:35:04.926Z,67.53
2023-03-02T20:37:32.061Z,67.69
2023-03-02T20:39:58.955Z,67.69
2023-03-02T20:42:26.950Z,67.46
2023-03-02T20:44:55.877Z,67.54
2023-03-02T20:47:22.717Z,67.44
2023-03-02T20:49:49.716Z,67.53
2023-03-02T20:52:16.627Z,67.46
2023-03-02T20:54:43.682Z,67.45
2023-03-02T20:57:14.750Z,67.46
2023-03-02T20:59:41.911Z,67.53
2023-03-02T21:02:10.090Z,67.47
2023-03-02T21:04:37.017Z,67.47
2023-03-02T21:07:03.967Z,67.91
2023-03-02T21:09:30.780Z,67.74
2023-03-02T21:11:58.303Z,67.84
2023-03-02T21:14:26.977Z,67.96
2023-03-02T21:16:54.226Z,67.78
2023-03-02T21:19:21.114Z,67.77
2023-03-02T21:21:48.336Z,68.35
2023-03-02T21:24:20.097Z,67.99
2023-03-02T21:26:48.013Z,68.10
2023-03-02T21:29:16.174Z,68.82
2023-03-02T21:31:43.326Z,68.69
2023-03-02T21:34:11.562Z,68.38
2023-03-02T21:36:38.559Z,68.70
2023-03-02T21:39:06.406Z,68.40
2023-03-02T21:41:35.351Z,68.68
2023-03-02T21:44:04.905Z,68.60
2023-03-02T21:46:32.961Z,68.74
2023-03-02T21:48:59.868Z,69.07
2023-03-02T21:51:26.743Z,69.06
2023-03-02T21:53:53.759Z,69.11
2023-03-02T21:56:23.211Z,69.10
2023-03-02T21:58:50.825Z,69.07
2023-03-02T22:01:17.684Z,70.44
2023-03-02T22:03:44.904Z,69.95
2023-03-02T22:06:22.210Z,70.22
2023-03-02T22:08:49.366Z,69.97
2023-03-02T22:11:35.887Z,70.22
2023-03-02T22:14:13.084Z,70.03
2023-03-02T22:16:41.050Z,70.12
2023-03-02T22:19:24.149Z,70.17
2023-03-02T22:21:51.549Z,70.09
2023-03-02T22:24:26.129Z,70.09
2023-03-02T22:27:01.982Z,70.26
2023-03-02T22:29:31.549Z,70.44
2023-03-02T22:32:05.819Z,70.53
2023-03-02T22:34:35.210Z,70.50
2023-03-02T22:37:06.267Z,70.60
2023-03-02T22:39:33.137Z,70.36
2023-03-02T22:42:05.702Z,70.54
2023-03-02T22:44:33.043Z,70.60
2023-03-02T22:47:00.225Z,71.22
2023-03-02T22:49:27.874Z,71.01
2023-03-02T22:51:57.003Z,71.98
2023-03-02T22:54:30.075Z,71.43
2023-03-02T22:56:57.000Z,70.99
2023-03-02T22:59:28.135Z,71.11
2023-03-02T23:01:59.433Z,71.26
2023-03-02T23:04:36.052Z,71.20
2023-03-02T23:07:12.294Z,70.96
2023-03-02T23:09:39.198Z,70.58
2023-03-02T23:12:15.232Z,70.49
2023-03-02T23:14:46.745Z,70.46
2023-03-02T23:17:16.442Z,70.14
2023-03-02T23:19:43.609Z,70.66
2023-03-02T23:22:10.759Z,70.49
2023-03-02T23:24:37.619Z,70.81
2023-03-02T23:27:04.644Z,71.06
2023-03-02T23:29:31.497Z,71.65
2023-03-02T23:31:58.582Z,71.75
2023-03-02T23:34:25.749Z,71.53
2023-03-02T23:36:52.722Z,71.53
2023-03-02T23:39:19.637Z,71.71
2023-03-02T23:41:46.573Z,72.01
2023-03-02T23:44:13.875Z,71.92
2023-03-02T23:46:40.701Z,72.31
2023-03-02T23:49:07.620Z,72.54
2023-03-02T23:51:34.603Z,72.40
2023-03-02T23:54:04.171Z,72.26
2023-03-02T23:56:31.672Z,72.37
2023-03-02T23:58:58.913Z,72.82
